Latest Weather Observations for Naracoorte

IDS60801

Issued at 3:31 pm CST Friday 29 July 2016 (issued every 30 minutes, with the page automatically refreshed every 10 minutes)

About weather observations | Map of weather stations | Latest weather observations for SA | Other Formats
Station Details ID: 026099 Name: NARACOORTE AERODROME Lat: -36.98 Lon: 140.73 Height: 49.72 m
Data from the previous 72 hours. | See also: Recent months at Naracoorte
Date/Time
CST
Temp
°C
App
Temp
°C
Dew
Point
°C
Rel
Hum
%
Delta-T
°C
Wind Press
QNH
hPa
Press
MSL
hPa
Rain since
9am
mm
Dir  Spd
km/h
Gust
km/h
Spd
kts
Gust
kts
29/03:30pm 12.7 9.6 12.1 96 0.3 WNW 20 24 11 13 1021.2 1021.3 8.0
29/03:00pm 12.8 9.6 12.0 95 0.4 W 20 28 11 15 1021.1 1021.2 7.4
29/02:30pm 12.8 9.6 12.0 95 0.4 W 20 26 11 14 1021.1 1021.2 6.8
29/02:00pm 12.8 10.3 12.2 96 0.3 W 17 20 9 11 1021.1 1021.2 6.0
29/01:30pm 12.5 9.5 11.9 96 0.3 W 19 24 10 13 1021.1 1021.2 5.8
29/01:00pm 12.4 9.4 11.8 96 0.3 NW 19 28 10 15 1021.4 1021.5 2.0
29/12:30pm 12.3 8.3 11.7 96 0.3 NW 24 28 13 15 1021.9 1022.0 1.6
29/12:00pm 12.3 7.9 11.7 96 0.3 NW 26 33 14 18 1022.2 1022.3 0.4
29/11:30am 11.7 7.5 11.1 96 0.3 NW 24 32 13 17 1022.5 1022.6 0.4
29/11:00am 11.4 6.7 10.6 95 0.4 NW 26 33 14 18 1022.8 1022.9 0.4
29/10:30am 11.1 6.4 10.5 96 0.3 NNW 26 35 14 19 1022.9 1023.0 0.4
29/10:00am 10.9 6.9 10.4 97 0.3 NNW 22 30 12 16 1023.0 1023.1 0.4
29/09:30am 10.7 7.0 10.2 97 0.3 NNW 20 28 11 15 1022.9 1023.0 0.0
29/09:00am 10.5 6.4 10.0 97 0.3 NNW 22 32 12 17 1023.1 1023.2 3.0
29/08:30am 10.4 6.2 9.9 97 0.3 NW 22 32 12 17 1022.9 1023.0 2.8
29/08:00am 10.2 6.4 9.7 97 0.3 NNW 20 26 11 14 1023.0 1023.1 2.8
29/07:30am 10.1 6.2 9.6 97 0.2 NNW 20 26 11 14 1022.8 1022.9 2.4
29/07:00am 10.2 6.6 9.7 97 0.3 NNW 19 24 10 13 1022.5 1022.6 1.4
29/06:30am 10.2 6.4 9.7 97 0.3 NNW 20 26 11 14 1022.4 1022.5 1.0
29/06:00am 10.4 6.6 9.9 97 0.3 NNW 20 28 11 15 1022.1 1022.2 0.6
29/05:30am 10.4 6.6 9.9 97 0.3 NNW 20 28 11 15 1022.1 1022.2 0.4
29/05:00am 10.7 6.6 10.1 96 0.3 NNW 22 32 12 17 1021.9 1022.0 0.2
29/04:30am 10.6 6.1 10.0 96 0.3 NNW 24 32 13 17 1021.8 1021.9 0.2
29/04:00am 10.6 6.1 10.0 96 0.3 NNW 24 33 13 18 1021.8 1021.9 0.0
29/03:30am 10.5 6.3 9.9 96 0.3 NNW 22 30 12 16 1021.9 1022.0 0.0
29/03:00am 10.7 6.9 9.9 95 0.4 NNW 20 28 11 15 1022.1 1022.2 0.0
29/02:30am 11.0 6.5 10.1 94 0.5 NNW 24 35 13 19 1022.3 1022.4 0.0
29/02:00am 10.9 6.8 10.0 94 0.5 NW 22 28 12 15 1022.6 1022.7 0.0
29/01:30am 10.7 6.8 9.6 93 0.6 NNW 20 24 11 13 1022.6 1022.7 0.0
29/01:00am 10.8 7.0 9.7 93 0.6 NW 20 28 11 15 1022.8 1022.9 0.0
29/12:30am 10.7 7.1 9.8 94 0.5 NNW 19 26 10 14 1022.9 1023.0 0.0
29/12:00am 10.8 7.2 10.0 95 0.4 NNW 19 24 10 13 1023.2 1023.3 0.0
 
Date/Time
CST
Temp
°C
App
Temp
°C
Dew
Point
°C
Rel
Hum
%
Delta-T
°C
Wind Press
QNH
hPa
Press
MSL
hPa
Rain since
9am
mm
Dir  Spd
km/h
Gust
km/h
Spd
kts
Gust
kts
28/11:30pm 10.6 7.4 9.8 95 0.4 NNW 17 22 9 12 1023.5 1023.6 0.0
28/11:00pm 10.7 7.5 9.8 94 0.5 NNW 17 24 9 13 1023.5 1023.6 0.0
28/10:30pm 11.0 7.1 9.3 89 0.8 NW 20 26 11 14 1023.7 1023.8 0.0
28/10:00pm 10.8 7.4 9.1 89 0.8 NW 17 20 9 11 1023.9 1024.0 0.0
28/09:30pm 11.1 7.5 8.5 84 1.3 NW 17 20 9 11 1024.1 1024.2 0.0
28/09:00pm 11.2 7.6 8.2 82 1.5 NNW 17 20 9 11 1024.1 1024.2 0.0
28/08:30pm 11.4 7.8 8.3 81 1.5 NW 17 22 9 12 1024.4 1024.5 0.0
28/08:00pm 11.5 7.9 8.4 81 1.5 NNW 17 20 9 11 1024.6 1024.7 0.0
28/07:30pm 11.6 8.0 8.3 80 1.6 NW 17 24 9 13 1024.6 1024.7 0.0
28/07:00pm 11.7 7.7 8.2 79 1.7 NNW 19 26 10 14 1024.7 1024.8 0.0
28/06:30pm 11.8 7.8 8.3 79 1.7 NW 19 24 10 13 1024.7 1024.8 0.0
28/06:00pm 12.0 7.9 8.7 80 1.6 NW 20 26 11 14 1024.6 1024.7 0.0
28/05:30pm 12.2 8.2 9.0 81 1.6 NW 20 28 11 15 1024.5 1024.6 0.0
28/05:00pm 12.6 8.2 9.1 79 1.8 NW 22 33 12 18 1024.5 1024.6 0.0
28/04:30pm 13.1 9.0 8.6 74 2.2 WNW 20 26 11 14 1024.5 1024.6 0.0
28/04:00pm 13.4 8.9 8.5 72 2.5 WNW 22 28 12 15 1024.5 1024.6 0.0
28/03:30pm 13.8 8.4 7.8 67 3.0 WNW 26 33 14 18 1024.4 1024.5 0.0
28/03:00pm 14.5 8.5 8.7 68 2.9 WNW 30 37 16 20 1024.4 1024.5 0.0
28/02:30pm 14.3 8.1 7.8 65 3.2 WNW 30 39 16 21 1024.2 1024.3 0.0
28/02:00pm 15.3 8.7 8.5 64 3.5 WNW 33 41 18 22 1024.2 1024.3 0.0
28/01:30pm 14.4 8.1 7.5 63 3.4 WNW 30 37 16 20 1024.4 1024.5 0.0
28/01:00pm 14.5 7.9 8.7 68 2.9 WNW 33 43 18 23 1024.8 1024.9 0.0
28/12:30pm 14.2 7.9 9.0 71 2.6 W 32 39 17 21 1025.1 1025.2 0.0
28/12:00pm 14.4 8.4 8.8 69 2.8 WNW 30 41 16 22 1025.3 1025.4 0.0
28/11:30am 14.3 8.2 8.3 67 3.0 WNW 30 37 16 20 1025.7 1025.8 0.0
28/11:00am 13.9 7.4 8.1 68 2.9 WNW 32 43 17 23 1025.9 1026.0 0.0
28/10:30am 13.1 8.9 9.7 80 1.7 NW 22 30 12 16 1026.1 1026.2 0.0
28/10:00am 12.3 7.9 9.1 81 1.6 NW 22 28 12 15 1026.0 1026.1 0.0
28/09:30am 12.0 8.2 9.0 82 1.5 NW 19 24 10 13 1025.8 1025.9 0.0
28/09:00am 10.6 7.5 8.9 89 0.8 NNW 15 20 8 11 1025.9 1026.0 0.4
28/08:30am 10.0 7.2 8.6 91 0.7 NNW 13 19 7 10 1025.6 1025.7 0.4
28/08:00am 9.4 6.6 8.5 94 0.4 N 13 19 7 10 1025.4 1025.5 0.4
28/07:30am 9.4 6.2 8.3 93 0.5 NW 15 19 8 10 1025.3 1025.4 0.4
28/07:00am 9.3 5.7 8.4 94 0.4 NW 17 22 9 12 1025.2 1025.3 0.2
28/06:30am 9.4 5.8 8.5 94 0.4 NW 17 24 9 13 1025.4 1025.5 0.2
28/06:00am 9.2 6.4 8.4 95 0.4 NNW 13 17 7 9 1024.9 1025.0 0.2
28/05:30am 9.3 6.5 8.5 95 0.4 NW 13 19 7 10 1024.8 1024.9 0.2
28/05:00am 9.1 5.9 8.3 95 0.4 NW 15 20 8 11 1024.8 1024.9 0.2
28/04:30am 9.1 6.3 8.5 96 0.3 NW 13 17 7 9 1024.4 1024.5 0.2
28/04:00am 8.9 5.3 8.5 97 0.2 NW 17 26 9 14 1024.3 1024.4 0.2
28/03:30am 8.8 5.5 8.2 96 0.3 NW 15 17 8 9 1024.2 1024.3 0.2
28/03:00am 9.4 5.9 8.8 96 0.3 WNW 17 20 9 11 1024.3 1024.4 0.2
28/02:30am 9.1 5.5 8.5 96 0.3 NW 17 20 9 11 1024.5 1024.6 0.2
28/02:00am 9.3 5.8 8.7 96 0.3 NW 17 20 9 11 1024.4 1024.5 0.2
28/01:30am 9.2 5.7 8.6 96 0.3 WNW 17 19 9 10 1024.6 1024.7 0.0
28/01:00am 8.6 6.1 8.0 96 0.3 NW 11 15 6 8 1024.5 1024.6 0.0
28/12:30am 8.4 6.1 7.6 95 0.4 NNW 9 13 5 7 1024.4 1024.5 0.0
28/12:00am 8.9 6.4 8.1 95 0.4 NW 11 15 6 8 1024.5 1024.6 0.0
 
Date/Time
CST
Temp
°C
App
Temp
°C
Dew
Point
°C
Rel
Hum
%
Delta-T
°C
Wind Press
QNH
hPa
Press
MSL
hPa
Rain since
9am
mm
Dir  Spd
km/h
Gust
km/h
Spd
kts
Gust
kts
27/11:30pm 8.8 6.2 7.9 94 0.4 WNW 11 13 6 7 1024.6 1024.7 0.0
27/11:00pm 9.3 5.3 8.2 93 0.5 W 19 22 10 12 1024.6 1024.7 0.0
27/10:30pm 9.2 7.0 7.8 91 0.7 NW 9 13 5 7 1024.6 1024.7 0.0
27/10:00pm 9.2 6.6 7.6 90 0.8 NW 11 13 6 7 1024.7 1024.8 0.0
27/09:30pm 9.4 6.0 7.8 90 0.8 WNW 15 19 8 10 1024.6 1024.7 0.0
27/09:00pm 9.3 5.6 7.9 91 0.7 NW 17 20 9 11 1024.7 1024.8 0.0
27/08:30pm 9.4 5.6 7.7 89 0.8 WNW 17 19 9 10 1024.7 1024.8 0.0
27/08:00pm 9.6 6.1 7.2 85 1.1 WNW 15 19 8 10 1024.6 1024.7 0.0
27/07:30pm 9.8 6.3 7.2 84 1.2 WNW 15 20 8 11 1024.1 1024.2 0.0
27/07:00pm 9.4 6.8 7.7 89 0.8 NW 11 15 6 8 1023.8 1023.9 0.0
27/06:30pm 9.4 5.1 7.7 89 0.8 WNW 20 28 11 15 1023.6 1023.7 0.0
27/06:20pm 9.5 3.6 7.6 88 0.9 W 28 35 15 19 1023.5 1023.6 0.0
27/06:00pm 9.5 6.5 7.8 89 0.8 NW 13 17 7 9 1023.2 1023.3 0.0
27/05:30pm 9.0 6.3 7.3 89 0.8 NW 11 13 6 7 1022.7 1022.8 0.0
27/05:00pm 9.6 6.6 7.9 89 0.8 W 13 17 7 9 1022.6 1022.7 0.0
27/04:30pm 10.4 3.6 6.7 78 1.7 W 32 39 17 21 1022.6 1022.7 0.0
27/04:00pm 11.4 6.7 5.9 69 2.6 WSW 20 24 11 13 1022.1 1022.2 0.0
27/03:30pm 11.2 6.2 6.3 72 2.3 W 22 30 12 16 1022.1 1022.2 0.0
27/03:00pm 11.4 6.7 5.9 69 2.6 WSW 20 28 11 15 1021.7 1021.8 0.0
27/02:30pm 11.2 4.3 6.3 72 2.3 W 32 43 17 23 1021.5 1021.6 0.0
27/02:00pm 12.6 6.6 5.3 61 3.4 WSW 26 33 14 18 1020.9 1021.0 0.0
27/01:30pm 11.3 4.9 5.2 66 2.8 WSW 28 37 15 20 1020.7 1020.8 0.0
27/01:00pm 12.6 5.8 5.3 61 3.4 WSW 30 37 16 20 1020.5 1020.6 0.0
27/12:30pm 11.8 5.9 5.7 66 2.8 SW 26 37 14 20 1020.5 1020.6 0.0
27/12:00pm 11.2 4.9 5.5 68 2.6 WSW 28 33 15 18 1020.5 1020.6 0.0
27/11:30am 11.1 5.5 5.6 69 2.5 SW 24 30 13 16 1020.6 1020.7 0.0
27/11:00am 10.8 5.1 6.7 76 1.9 SW 26 33 14 18 1020.4 1020.5 0.0
27/10:30am 10.2 5.8 6.4 77 1.8 SW 19 26 10 14 1020.1 1020.1 0.0
27/10:00am 9.5 4.8 6.2 80 1.5 SW 20 24 11 13 1019.8 1019.8 0.0
27/09:30am 9.0 4.6 6.4 84 1.2 SW 19 22 10 12 1019.3 1019.3 0.0
27/09:00am 8.3 3.8 6.3 87 0.9 SW 19 26 10 14 1019.0 1019.0 5.6
27/08:30am 7.9 3.3 5.5 85 1.1 SW 19 22 10 12 1018.3 1018.3 5.6
27/08:00am 7.4 3.2 5.7 89 0.8 WSW 17 22 9 12 1017.7 1017.7 5.6
27/07:30am 6.1 2.4 4.7 91 0.6 WSW 13 15 7 8 1017.3 1017.3 5.6
27/07:00am 6.6 2.2 4.8 88 0.8 SW 17 19 9 10 1016.4 1016.5 5.6
27/06:30am 6.7 1.7 4.7 87 0.9 SW 20 26 11 14 1015.8 1015.9 5.6
27/06:00am 7.1 2.2 4.9 86 1.0 SW 20 22 11 12 1015.0 1015.1 5.6
27/05:30am 7.8 3.0 5.8 87 0.9 SW 20 28 11 15 1014.2 1014.3 5.6
27/05:00am 8.3 2.9 6.3 87 0.9 SW 24 30 13 16 1013.3 1013.4 5.6
27/04:30am 9.0 2.7 7.3 89 0.8 SW 30 37 16 20 1012.2 1012.3 5.6
27/04:00am 9.3 3.9 8.2 93 0.5 SW 26 35 14 19 1011.3 1011.4 5.6
27/03:30am 9.2 3.8 8.1 93 0.5 WSW 26 37 14 20 1010.6 1010.7 5.4
27/03:00am 7.6 4.0 6.9 95 0.3 W 15 17 8 9 1010.1 1010.2 5.4
27/02:30am 7.8 3.4 6.7 93 0.5 W 19 20 10 11 1009.5 1009.6 5.4
27/02:00am 8.5 4.1 7.4 93 0.5 W 20 22 11 12 1008.9 1009.0 5.4
27/01:30am 8.3 4.5 7.4 94 0.4 WNW 17 24 9 13 1008.5 1008.6 5.4
27/01:00am 8.0 3.7 6.8 92 0.6 W 19 22 10 12 1007.8 1007.9 5.2
27/12:30am 8.9 4.1 7.4 90 0.7 W 22 30 12 16 1007.5 1007.6 5.2
27/12:00am 7.8 3.7 6.4 91 0.6 W 17 19 9 10 1007.1 1007.2 5.2
 
Date/Time
CST
Temp
°C
App
Temp
°C
Dew
Point
°C
Rel
Hum
%
Delta-T
°C
Wind Press
QNH
hPa
Press
MSL
hPa
Rain since
9am
mm
Dir  Spd
km/h
Gust
km/h
Spd
kts
Gust
kts
26/11:30pm 9.1 4.1 7.9 92 0.6 W 24 33 13 18 1006.6 1006.7 5.2
26/11:00pm 9.1 3.3 7.9 92 0.6 WSW 28 39 15 21 1005.9 1006.0 5.2
26/10:30pm 9.1 3.7 8.2 94 0.4 W 26 32 14 17 1005.4 1005.5 4.8
26/10:00pm 8.7 4.4 7.8 94 0.4 NW 20 28 11 15 1004.7 1004.8 4.6
26/09:30pm 8.5 2.9 7.3 92 0.6 NW 26 35 14 19 1004.2 1004.3 4.2
26/09:00pm 8.3 3.1 7.4 94 0.4 NNW 24 33 13 18 1003.7 1003.8 4.2
26/08:30pm 8.0 2.7 6.6 91 0.6 NNW 24 35 13 19 1003.8 1003.9 4.0
26/08:00pm 8.0 2.3 6.6 91 0.6 NNW 26 37 14 20 1003.7 1003.8 3.8
26/07:30pm 8.4 2.4 7.0 91 0.7 NNW 28 41 15 22 1003.8 1003.9 3.8
26/07:11pm 8.4 1.6 7.0 91 0.7 NNW 32 50 17 27 1003.9 1004.0 3.4
26/07:00pm 8.6 1.3 7.1 90 0.7 NNW 35 52 19 28 1004.0 1004.1 2.8
26/06:30pm 8.7 2.7 7.0 89 0.8 NNW 28 37 15 20 1004.0 1004.1 2.4
26/06:00pm 9.2 3.5 6.6 84 1.2 N 26 37 14 20 1003.9 1004.0 2.2
26/05:30pm 9.1 4.2 6.7 85 1.1 N 22 35 12 19 1004.0 1004.1 2.0
26/05:00pm 9.5 2.4 6.6 82 1.4 NW 33 46 18 25 1004.7 1004.8 1.8
26/04:30pm 9.6 2.1 6.5 81 1.5 NNW 35 46 19 25 1005.0 1005.1 1.2
26/04:19pm 9.8 2.7 6.5 80 1.5 NNW 33 52 18 28 1005.1 1005.2 1.2
26/04:00pm 9.7 3.7 7.0 83 1.3 NNW 28 41 15 22 1005.5 1005.6 1.0

Other Formats:

Comma delimited format used in spreadsheet applications
http://www.bom.gov.au/fwo/IDS60801/IDS60801.94820.axf

JavaScript Object Notation format (JSON) in row-major order
http://www.bom.gov.au/fwo/IDS60801/IDS60801.94820.json